sensor_id;sensor_type;location;lat;lon;timestamp;P1;durP1;ratioP1;P2;durP2;ratioP2
65289;SDS011;51893;59.754;10.110;2022-10-31T00:01:38;11.70;;;6.90;;
65289;SDS011;51893;59.754;10.110;2022-10-31T00:04:07;13.10;;;6.90;;
65289;SDS011;51893;59.754;10.110;2022-10-31T00:06:35;10.20;;;6.50;;
65289;SDS011;51893;59.754;10.110;2022-10-31T00:09:06;11.40;;;6.80;;
65289;SDS011;51893;59.754;10.110;2022-10-31T00:11:34;12.90;;;7.20;;
65289;SDS011;51893;59.754;10.110;2022-10-31T00:14:04;10.20;;;6.50;;
65289;SDS011;51893;59.754;10.110;2022-10-31T00:16:32;13.40;;;6.60;;
65289;SDS011;51893;59.754;10.110;2022-10-31T00:19:05;10.80;;;6.70;;
65289;SDS011;51893;59.754;10.110;2022-10-31T00:21:35;18.30;;;7.20;;
65289;SDS011;51893;59.754;10.110;2022-10-31T00:24:03;11.20;;;7.20;;
65289;SDS011;51893;59.754;10.110;2022-10-31T00:26:32;12.30;;;6.50;;
65289;SDS011;51893;59.754;10.110;2022-10-31T00:29:04;14.30;;;7.20;;
65289;SDS011;51893;59.754;10.110;2022-10-31T00:31:33;10.30;;;5.60;;
65289;SDS011;51893;59.754;10.110;2022-10-31T00:34:02;17.30;;;7.50;;
65289;SDS011;51893;59.754;10.110;2022-10-31T00:36:31;11.20;;;6.30;;
65289;SDS011;51893;59.754;10.110;2022-10-31T00:38:59;13.40;;;6.20;;
65289;SDS011;51893;59.754;10.110;2022-10-31T00:41:28;11.80;;;6.80;;
65289;SDS011;51893;59.754;10.110;2022-10-31T00:43:59;13.00;;;7.20;;
65289;SDS011;51893;59.754;10.110;2022-10-31T00:49:01;11.70;;;6.10;;
65289;SDS011;51893;59.754;10.110;2022-10-31T00:51:31;12.60;;;6.30;;
65289;SDS011;51893;59.754;10.110;2022-10-31T00:54:00;9.80;;;6.00;;
65289;SDS011;51893;59.754;10.110;2022-10-31T00:56:29;12.90;;;6.50;;
65289;SDS011;51893;59.754;10.110;2022-10-31T00:58:58;13.60;;;6.20;;
65289;SDS011;51893;59.754;10.110;2022-10-31T01:01:27;12.80;;;6.70;;
65289;SDS011;51893;59.754;10.110;2022-10-31T01:03:58;14.50;;;6.70;;
65289;SDS011;51893;59.754;10.110;2022-10-31T01:06:28;15.30;;;7.20;;
65289;SDS011;51893;59.754;10.110;2022-10-31T01:08:56;12.70;;;7.20;;
65289;SDS011;51893;59.754;10.110;2022-10-31T01:11:28;11.20;;;6.00;;
65289;SDS011;51893;59.754;10.110;2022-10-31T01:13:57;7.70;;;5.20;;
65289;SDS011;51893;59.754;10.110;2022-10-31T01:16:27;10.20;;;6.60;;
65289;SDS011;51893;59.754;10.110;2022-10-31T01:18:57;11.00;;;6.40;;
65289;SDS011;51893;59.754;10.110;2022-10-31T01:21:28;7.60;;;4.80;;
65289;SDS011;51893;59.754;10.110;2022-10-31T01:23:58;17.80;;;6.80;;
65289;SDS011;51893;59.754;10.110;2022-10-31T01:26:28;10.70;;;6.10;;
65289;SDS011;51893;59.754;10.110;2022-10-31T01:29:07;10.90;;;6.50;;
65289;SDS011;51893;59.754;10.110;2022-10-31T01:31:38;9.40;;;5.40;;
65289;SDS011;51893;59.754;10.110;2022-10-31T01:34:07;9.20;;;4.60;;
65289;SDS011;51893;59.754;10.110;2022-10-31T01:36:39;12.00;;;5.70;;
65289;SDS011;51893;59.754;10.110;2022-10-31T01:39:14;13.90;;;6.40;;
65289;SDS011;51893;59.754;10.110;2022-10-31T01:41:45;11.50;;;5.90;;
65289;SDS011;51893;59.754;10.110;2022-10-31T01:46:59;5.80;;;4.10;;
65289;SDS011;51893;59.754;10.110;2022-10-31T01:49:38;14.40;;;8.00;;
65289;SDS011;51893;59.754;10.110;2022-10-31T01:52:24;11.40;;;6.00;;
65289;SDS011;51893;59.754;10.110;2022-10-31T01:55:18;14.90;;;6.80;;
65289;SDS011;51893;59.754;10.110;2022-10-31T01:57:59;16.10;;;7.00;;
65289;SDS011;51893;59.754;10.110;2022-10-31T02:00:34;14.90;;;7.40;;
65289;SDS011;51893;59.754;10.110;2022-10-31T02:03:03;19.30;;;7.30;;
65289;SDS011;51893;59.754;10.110;2022-10-31T02:05:36;13.00;;;7.30;;
65289;SDS011;51893;59.754;10.110;2022-10-31T02:08:29;16.30;;;7.30;;
65289;SDS011;51893;59.754;10.110;2022-10-31T02:11:00;12.30;;;6.20;;
65289;SDS011;51893;59.754;10.110;2022-10-31T02:13:29;18.10;;;7.90;;
65289;SDS011;51893;59.754;10.110;2022-10-31T02:15:59;15.50;;;7.20;;
65289;SDS011;51893;59.754;10.110;2022-10-31T02:18:30;17.40;;;7.60;;
65289;SDS011;51893;59.754;10.110;2022-10-31T02:24:19;15.20;;;7.60;;
65289;SDS011;51893;59.754;10.110;2022-10-31T02:30:28;17.30;;;7.50;;
65289;SDS011;51893;59.754;10.110;2022-10-31T02:39:01;18.20;;;7.90;;
65289;SDS011;51893;59.754;10.110;2022-10-31T02:42:09;9.80;;;6.50;;
65289;SDS011;51893;59.754;10.110;2022-10-31T02:47:34;10.70;;;6.80;;
65289;SDS011;51893;59.754;10.110;2022-10-31T02:53:05;16.30;;;8.00;;
65289;SDS011;51893;59.754;10.110;2022-10-31T02:58:09;13.80;;;7.10;;
65289;SDS011;51893;59.754;10.110;2022-10-31T03:10:02;16.30;;;8.10;;
65289;SDS011;51893;59.754;10.110;2022-10-31T03:13:21;15.00;;;6.80;;
65289;SDS011;51893;59.754;10.110;2022-10-31T03:19:06;18.00;;;8.40;;
65289;SDS011;51893;59.754;10.110;2022-10-31T03:21:57;18.30;;;7.40;;
65289;SDS011;51893;59.754;10.110;2022-10-31T03:24:36;19.60;;;8.60;;
65289;SDS011;51893;59.754;10.110;2022-10-31T03:27:08;15.50;;;7.90;;
65289;SDS011;51893;59.754;10.110;2022-10-31T03:29:40;19.40;;;9.80;;
65289;SDS011;51893;59.754;10.110;2022-10-31T03:32:20;15.80;;;8.70;;
65289;SDS011;51893;59.754;10.110;2022-10-31T03:35:13;18.60;;;9.10;;
65289;SDS011;51893;59.754;10.110;2022-10-31T03:37:49;19.50;;;9.10;;
65289;SDS011;51893;59.754;10.110;2022-10-31T03:40:21;18.80;;;9.30;;
65289;SDS011;51893;59.754;10.110;2022-10-31T03:42:59;17.10;;;8.10;;
65289;SDS011;51893;59.754;10.110;2022-10-31T03:45:41;23.40;;;9.70;;
65289;SDS011;51893;59.754;10.110;2022-10-31T03:48:16;28.80;;;10.40;;
65289;SDS011;51893;59.754;10.110;2022-10-31T03:53:41;23.50;;;9.40;;
65289;SDS011;51893;59.754;10.110;2022-10-31T03:59:40;20.10;;;9.30;;
65289;SDS011;51893;59.754;10.110;2022-10-31T04:02:18;22.30;;;9.40;;
65289;SDS011;51893;59.754;10.110;2022-10-31T04:04:51;22.20;;;10.20;;
65289;SDS011;51893;59.754;10.110;2022-10-31T04:07:22;20.10;;;9.70;;
65289;SDS011;51893;59.754;10.110;2022-10-31T04:09:57;28.20;;;10.40;;
65289;SDS011;51893;59.754;10.110;2022-10-31T04:12:29;21.60;;;10.70;;
65289;SDS011;51893;59.754;10.110;2022-10-31T04:15:02;25.70;;;12.20;;
65289;SDS011;51893;59.754;10.110;2022-10-31T04:17:39;26.20;;;10.90;;
65289;SDS011;51893;59.754;10.110;2022-10-31T04:20:10;26.60;;;11.10;;
65289;SDS011;51893;59.754;10.110;2022-10-31T04:22:39;27.30;;;10.90;;
65289;SDS011;51893;59.754;10.110;2022-10-31T04:25:08;21.80;;;10.20;;
65289;SDS011;51893;59.754;10.110;2022-10-31T04:27:38;21.20;;;10.20;;
65289;SDS011;51893;59.754;10.110;2022-10-31T04:30:07;22.00;;;9.50;;
65289;SDS011;51893;59.754;10.110;2022-10-31T04:32:37;24.00;;;10.00;;
65289;SDS011;51893;59.754;10.110;2022-10-31T04:35:05;26.30;;;11.10;;
65289;SDS011;51893;59.754;10.110;2022-10-31T04:37:35;27.30;;;10.70;;
65289;SDS011;51893;59.754;10.110;2022-10-31T04:40:06;24.30;;;10.30;;
65289;SDS011;51893;59.754;10.110;2022-10-31T04:42:34;18.20;;;7.80;;
65289;SDS011;51893;59.754;10.110;2022-10-31T04:45:02;22.50;;;9.70;;
65289;SDS011;51893;59.754;10.110;2022-10-31T04:47:32;18.70;;;8.70;;
65289;SDS011;51893;59.754;10.110;2022-10-31T04:50:02;18.00;;;8.70;;
65289;SDS011;51893;59.754;10.110;2022-10-31T04:52:30;19.30;;;10.10;;
65289;SDS011;51893;59.754;10.110;2022-10-31T04:55:00;27.10;;;10.40;;
65289;SDS011;51893;59.754;10.110;2022-10-31T04:57:31;26.30;;;10.30;;
65289;SDS011;51893;59.754;10.110;2022-10-31T04:59:59;25.40;;;10.20;;
65289;SDS011;51893;59.754;10.110;2022-10-31T05:02:27;21.70;;;9.90;;
65289;SDS011;51893;59.754;10.110;2022-10-31T05:04:55;20.70;;;10.00;;
65289;SDS011;51893;59.754;10.110;2022-10-31T05:07:23;18.00;;;9.30;;
65289;SDS011;51893;59.754;10.110;2022-10-31T05:09:51;19.90;;;9.70;;
65289;SDS011;51893;59.754;10.110;2022-10-31T05:12:19;20.40;;;9.70;;
65289;SDS011;51893;59.754;10.110;2022-10-31T05:14:47;22.70;;;10.80;;
65289;SDS011;51893;59.754;10.110;2022-10-31T05:17:16;23.30;;;10.90;;
65289;SDS011;51893;59.754;10.110;2022-10-31T05:19:45;23.70;;;10.10;;
65289;SDS011;51893;59.754;10.110;2022-10-31T05:22:14;25.10;;;10.50;;
65289;SDS011;51893;59.754;10.110;2022-10-31T05:24:42;20.10;;;9.70;;
65289;SDS011;51893;59.754;10.110;2022-10-31T05:27:11;20.70;;;10.80;;
65289;SDS011;51893;59.754;10.110;2022-10-31T05:29:39;19.60;;;10.00;;
65289;SDS011;51893;59.754;10.110;2022-10-31T05:32:10;20.10;;;10.40;;
65289;SDS011;51893;59.754;10.110;2022-10-31T05:34:38;14.50;;;7.40;;
65289;SDS011;51893;59.754;10.110;2022-10-31T05:37:06;22.50;;;10.50;;
65289;SDS011;51893;59.754;10.110;2022-10-31T05:39:35;20.10;;;9.90;;
65289;SDS011;51893;59.754;10.110;2022-10-31T05:42:03;22.40;;;10.60;;
65289;SDS011;51893;59.754;10.110;2022-10-31T05:44:33;19.10;;;8.90;;
65289;SDS011;51893;59.754;10.110;2022-10-31T05:47:01;21.60;;;9.70;;
65289;SDS011;51893;59.754;10.110;2022-10-31T05:49:33;16.50;;;8.00;;
65289;SDS011;51893;59.754;10.110;2022-10-31T05:52:03;20.90;;;9.80;;
65289;SDS011;51893;59.754;10.110;2022-10-31T05:54:31;20.00;;;9.70;;
65289;SDS011;51893;59.754;10.110;2022-10-31T05:57:00;20.60;;;10.00;;
65289;SDS011;51893;59.754;10.110;2022-10-31T05:59:28;18.70;;;9.40;;
65289;SDS011;51893;59.754;10.110;2022-10-31T06:01:57;23.10;;;10.40;;
65289;SDS011;51893;59.754;10.110;2022-10-31T06:04:25;18.80;;;9.60;;
65289;SDS011;51893;59.754;10.110;2022-10-31T06:06:54;17.50;;;9.70;;
65289;SDS011;51893;59.754;10.110;2022-10-31T06:09:21;23.00;;;10.50;;
65289;SDS011;51893;59.754;10.110;2022-10-31T06:11:50;23.70;;;11.10;;
65289;SDS011;51893;59.754;10.110;2022-10-31T06:14:19;21.40;;;10.20;;
65289;SDS011;51893;59.754;10.110;2022-10-31T06:16:47;24.20;;;10.40;;
65289;SDS011;51893;59.754;10.110;2022-10-31T06:19:15;24.40;;;10.90;;
65289;SDS011;51893;59.754;10.110;2022-10-31T06:21:45;23.00;;;10.80;;
65289;SDS011;51893;59.754;10.110;2022-10-31T06:24:13;20.70;;;10.00;;
65289;SDS011;51893;59.754;10.110;2022-10-31T06:26:43;20.70;;;9.10;;
65289;SDS011;51893;59.754;10.110;2022-10-31T06:29:12;23.80;;;10.10;;
65289;SDS011;51893;59.754;10.110;2022-10-31T06:31:41;22.30;;;10.60;;
65289;SDS011;51893;59.754;10.110;2022-10-31T06:34:11;20.30;;;9.90;;
65289;SDS011;51893;59.754;10.110;2022-10-31T06:36:39;18.70;;;10.90;;
65289;SDS011;51893;59.754;10.110;2022-10-31T06:39:07;26.10;;;10.50;;
65289;SDS011;51893;59.754;10.110;2022-10-31T06:41:35;22.90;;;10.90;;
65289;SDS011;51893;59.754;10.110;2022-10-31T06:44:07;22.40;;;10.60;;
65289;SDS011;51893;59.754;10.110;2022-10-31T06:46:36;20.10;;;9.70;;
65289;SDS011;51893;59.754;10.110;2022-10-31T06:49:14;29.10;;;10.90;;
65289;SDS011;51893;59.754;10.110;2022-10-31T06:51:47;18.20;;;9.00;;
65289;SDS011;51893;59.754;10.110;2022-10-31T06:54:15;22.30;;;10.00;;
65289;SDS011;51893;59.754;10.110;2022-10-31T06:56:45;17.10;;;8.70;;
65289;SDS011;51893;59.754;10.110;2022-10-31T06:59:15;22.90;;;10.10;;
65289;SDS011;51893;59.754;10.110;2022-10-31T07:01:43;20.30;;;9.60;;
65289;SDS011;51893;59.754;10.110;2022-10-31T07:04:12;19.50;;;10.10;;
65289;SDS011;51893;59.754;10.110;2022-10-31T07:06:40;16.10;;;8.50;;
65289;SDS011;51893;59.754;10.110;2022-10-31T07:09:08;16.00;;;8.60;;
65289;SDS011;51893;59.754;10.110;2022-10-31T07:11:41;18.30;;;9.70;;
65289;SDS011;51893;59.754;10.110;2022-10-31T07:14:10;18.60;;;9.20;;
65289;SDS011;51893;59.754;10.110;2022-10-31T07:16:39;19.00;;;8.80;;
65289;SDS011;51893;59.754;10.110;2022-10-31T07:19:07;20.20;;;9.60;;
65289;SDS011;51893;59.754;10.110;2022-10-31T07:21:36;23.10;;;10.80;;
65289;SDS011;51893;59.754;10.110;2022-10-31T07:24:05;21.30;;;10.80;;
65289;SDS011;51893;59.754;10.110;2022-10-31T07:26:35;20.20;;;9.70;;
65289;SDS011;51893;59.754;10.110;2022-10-31T07:29:04;19.50;;;10.00;;
65289;SDS011;51893;59.754;10.110;2022-10-31T07:31:33;26.60;;;12.50;;
65289;SDS011;51893;59.754;10.110;2022-10-31T07:34:02;38.40;;;20.10;;
65289;SDS011;51893;59.754;10.110;2022-10-31T07:36:30;29.50;;;15.10;;
65289;SDS011;51893;59.754;10.110;2022-10-31T07:39:00;23.50;;;14.60;;
65289;SDS011;51893;59.754;10.110;2022-10-31T07:41:30;20.00;;;9.80;;
65289;SDS011;51893;59.754;10.110;2022-10-31T07:44:01;17.50;;;10.00;;
65289;SDS011;51893;59.754;10.110;2022-10-31T07:46:29;17.10;;;7.60;;
65289;SDS011;51893;59.754;10.110;2022-10-31T07:48:59;17.00;;;9.70;;
65289;SDS011;51893;59.754;10.110;2022-10-31T07:51:29;20.40;;;9.70;;
65289;SDS011;51893;59.754;10.110;2022-10-31T07:53:58;23.90;;;10.00;;
65289;SDS011;51893;59.754;10.110;2022-10-31T07:56:27;23.30;;;9.40;;
65289;SDS011;51893;59.754;10.110;2022-10-31T07:58:54;17.80;;;9.80;;
65289;SDS011;51893;59.754;10.110;2022-10-31T08:01:22;18.50;;;8.90;;
65289;SDS011;51893;59.754;10.110;2022-10-31T08:03:52;13.30;;;7.40;;
65289;SDS011;51893;59.754;10.110;2022-10-31T08:06:24;15.80;;;8.00;;
65289;SDS011;51893;59.754;10.110;2022-10-31T08:08:51;13.10;;;7.20;;
65289;SDS011;51893;59.754;10.110;2022-10-31T08:11:23;10.20;;;6.20;;
65289;SDS011;51893;59.754;10.110;2022-10-31T08:13:51;10.20;;;6.50;;
65289;SDS011;51893;59.754;10.110;2022-10-31T08:16:19;15.80;;;8.90;;
65289;SDS011;51893;59.754;10.110;2022-10-31T08:18:49;18.30;;;8.30;;
65289;SDS011;51893;59.754;10.110;2022-10-31T08:21:17;15.50;;;7.40;;
65289;SDS011;51893;59.754;10.110;2022-10-31T08:23:47;12.90;;;7.40;;
65289;SDS011;51893;59.754;10.110;2022-10-31T08:26:16;14.50;;;8.40;;
65289;SDS011;51893;59.754;10.110;2022-10-31T08:28:44;14.90;;;7.40;;
65289;SDS011;51893;59.754;10.110;2022-10-31T08:31:16;24.30;;;10.70;;
65289;SDS011;51893;59.754;10.110;2022-10-31T08:33:47;22.30;;;9.50;;
65289;SDS011;51893;59.754;10.110;2022-10-31T08:36:15;22.60;;;9.60;;
65289;SDS011;51893;59.754;10.110;2022-10-31T08:38:43;10.90;;;5.60;;
65289;SDS011;51893;59.754;10.110;2022-10-31T08:41:13;19.70;;;8.60;;
65289;SDS011;51893;59.754;10.110;2022-10-31T08:43:45;13.80;;;7.60;;
65289;SDS011;51893;59.754;10.110;2022-10-31T08:46:16;10.80;;;5.40;;
65289;SDS011;51893;59.754;10.110;2022-10-31T08:48:48;16.40;;;8.20;;
65289;SDS011;51893;59.754;10.110;2022-10-31T08:51:19;8.90;;;6.00;;
65289;SDS011;51893;59.754;10.110;2022-10-31T08:53:47;16.60;;;7.30;;
65289;SDS011;51893;59.754;10.110;2022-10-31T08:56:16;12.80;;;6.40;;
65289;SDS011;51893;59.754;10.110;2022-10-31T08:58:46;11.80;;;6.40;;
65289;SDS011;51893;59.754;10.110;2022-10-31T09:01:16;10.10;;;6.40;;
65289;SDS011;51893;59.754;10.110;2022-10-31T09:03:44;10.10;;;6.60;;
65289;SDS011;51893;59.754;10.110;2022-10-31T09:06:14;9.60;;;5.30;;
65289;SDS011;51893;59.754;10.110;2022-10-31T09:08:42;9.70;;;5.50;;
65289;SDS011;51893;59.754;10.110;2022-10-31T09:11:10;13.60;;;7.90;;
65289;SDS011;51893;59.754;10.110;2022-10-31T09:13:38;11.00;;;7.00;;
65289;SDS011;51893;59.754;10.110;2022-10-31T09:16:11;13.40;;;6.80;;
65289;SDS011;51893;59.754;10.110;2022-10-31T09:18:39;11.90;;;6.70;;
65289;SDS011;51893;59.754;10.110;2022-10-31T09:21:07;9.90;;;5.80;;
65289;SDS011;51893;59.754;10.110;2022-10-31T09:23:35;10.30;;;6.00;;
65289;SDS011;51893;59.754;10.110;2022-10-31T09:26:06;11.80;;;7.00;;
65289;SDS011;51893;59.754;10.110;2022-10-31T09:28:35;9.10;;;5.40;;
65289;SDS011;51893;59.754;10.110;2022-10-31T09:31:03;8.70;;;5.20;;
65289;SDS011;51893;59.754;10.110;2022-10-31T09:33:39;9.10;;;5.70;;
65289;SDS011;51893;59.754;10.110;2022-10-31T09:36:09;10.80;;;6.40;;
65289;SDS011;51893;59.754;10.110;2022-10-31T09:38:38;10.50;;;6.40;;
65289;SDS011;51893;59.754;10.110;2022-10-31T09:41:18;12.60;;;6.70;;
65289;SDS011;51893;59.754;10.110;2022-10-31T09:50:18;6.30;;;4.00;;
65289;SDS011;51893;59.754;10.110;2022-10-31T09:53:03;10.10;;;6.20;;
65289;SDS011;51893;59.754;10.110;2022-10-31T09:55:49;10.10;;;7.10;;
65289;SDS011;51893;59.754;10.110;2022-10-31T09:58:25;10.10;;;5.70;;
65289;SDS011;51893;59.754;10.110;2022-10-31T10:00:59;13.10;;;7.40;;
65289;SDS011;51893;59.754;10.110;2022-10-31T10:06:25;9.30;;;6.40;;
65289;SDS011;51893;59.754;10.110;2022-10-31T10:08:57;12.70;;;6.60;;
65289;SDS011;51893;59.754;10.110;2022-10-31T10:11:48;12.80;;;6.60;;
65289;SDS011;51893;59.754;10.110;2022-10-31T10:17:40;9.40;;;5.40;;
65289;SDS011;51893;59.754;10.110;2022-10-31T10:23:33;9.80;;;5.70;;
65289;SDS011;51893;59.754;10.110;2022-10-31T10:26:17;6.20;;;4.60;;
65289;SDS011;51893;59.754;10.110;2022-10-31T10:29:34;9.10;;;5.00;;
65289;SDS011;51893;59.754;10.110;2022-10-31T10:32:29;7.40;;;5.40;;
65289;SDS011;51893;59.754;10.110;2022-10-31T10:35:31;10.80;;;5.50;;
65289;SDS011;51893;59.754;10.110;2022-10-31T10:41:29;7.20;;;4.20;;
65289;SDS011;51893;59.754;10.110;2022-10-31T10:44:14;6.70;;;4.20;;
65289;SDS011;51893;59.754;10.110;2022-10-31T10:46:58;10.50;;;5.00;;
65289;SDS011;51893;59.754;10.110;2022-10-31T10:55:51;7.90;;;4.90;;
65289;SDS011;51893;59.754;10.110;2022-10-31T10:58:24;8.80;;;5.00;;
65289;SDS011;51893;59.754;10.110;2022-10-31T11:00:54;5.60;;;4.50;;
65289;SDS011;51893;59.754;10.110;2022-10-31T11:03:23;7.70;;;5.00;;
65289;SDS011;51893;59.754;10.110;2022-10-31T11:05:53;11.10;;;4.70;;
65289;SDS011;51893;59.754;10.110;2022-10-31T11:08:30;7.30;;;4.90;;
65289;SDS011;51893;59.754;10.110;2022-10-31T11:11:23;8.80;;;5.80;;
65289;SDS011;51893;59.754;10.110;2022-10-31T11:14:15;9.00;;;5.70;;
65289;SDS011;51893;59.754;10.110;2022-10-31T11:16:54;8.80;;;5.40;;
65289;SDS011;51893;59.754;10.110;2022-10-31T11:19:42;9.70;;;4.70;;
65289;SDS011;51893;59.754;10.110;2022-10-31T11:22:19;5.90;;;4.20;;
65289;SDS011;51893;59.754;10.110;2022-10-31T11:24:48;6.50;;;4.50;;
65289;SDS011;51893;59.754;10.110;2022-10-31T11:27:22;7.90;;;4.80;;
65289;SDS011;51893;59.754;10.110;2022-10-31T11:30:04;7.80;;;5.20;;
65289;SDS011;51893;59.754;10.110;2022-10-31T11:32:34;6.80;;;4.60;;
65289;SDS011;51893;59.754;10.110;2022-10-31T11:35:09;5.30;;;4.00;;
65289;SDS011;51893;59.754;10.110;2022-10-31T11:37:44;7.40;;;3.50;;
65289;SDS011;51893;59.754;10.110;2022-10-31T11:40:22;5.10;;;2.70;;
65289;SDS011;51893;59.754;10.110;2022-10-31T11:42:57;3.60;;;2.80;;
65289;SDS011;51893;59.754;10.110;2022-10-31T11:45:32;3.40;;;3.00;;
65289;SDS011;51893;59.754;10.110;2022-10-31T11:48:12;2.80;;;2.60;;
65289;SDS011;51893;59.754;10.110;2022-10-31T11:50:54;4.20;;;3.20;;
65289;SDS011;51893;59.754;10.110;2022-10-31T11:53:32;4.50;;;3.00;;
65289;SDS011;51893;59.754;10.110;2022-10-31T11:56:15;8.60;;;3.50;;
65289;SDS011;51893;59.754;10.110;2022-10-31T11:58:54;5.70;;;3.60;;
65289;SDS011;51893;59.754;10.110;2022-10-31T12:01:30;8.20;;;3.60;;
65289;SDS011;51893;59.754;10.110;2022-10-31T12:04:07;6.50;;;3.50;;
65289;SDS011;51893;59.754;10.110;2022-10-31T12:06:39;5.50;;;3.40;;
65289;SDS011;51893;59.754;10.110;2022-10-31T12:17:16;7.60;;;2.90;;
65289;SDS011;51893;59.754;10.110;2022-10-31T12:26:33;1.80;;;1.70;;
65289;SDS011;51893;59.754;10.110;2022-10-31T12:29:51;3.80;;;1.60;;
65289;SDS011;51893;59.754;10.110;2022-10-31T12:32:24;2.70;;;1.80;;
65289;SDS011;51893;59.754;10.110;2022-10-31T12:35:26;8.80;;;1.90;;
65289;SDS011;51893;59.754;10.110;2022-10-31T12:38:24;3.70;;;1.90;;
65289;SDS011;51893;59.754;10.110;2022-10-31T12:46:50;5.90;;;2.00;;
65289;SDS011;51893;59.754;10.110;2022-10-31T12:58:37;2.80;;;1.60;;
65289;SDS011;51893;59.754;10.110;2022-10-31T13:01:21;3.80;;;1.30;;
65289;SDS011;51893;59.754;10.110;2022-10-31T13:04:10;1.60;;;1.30;;
65289;SDS011;51893;59.754;10.110;2022-10-31T13:06:48;10.00;;;1.30;;
65289;SDS011;51893;59.754;10.110;2022-10-31T13:09:32;5.90;;;1.40;;
65289;SDS011;51893;59.754;10.110;2022-10-31T13:12:16;2.30;;;1.20;;
65289;SDS011;51893;59.754;10.110;2022-10-31T13:14:52;2.00;;;0.90;;
65289;SDS011;51893;59.754;10.110;2022-10-31T13:17:29;2.10;;;0.90;;
65289;SDS011;51893;59.754;10.110;2022-10-31T13:20:19;2.10;;;0.80;;
65289;SDS011;51893;59.754;10.110;2022-10-31T13:23:16;8.50;;;3.20;;
65289;SDS011;51893;59.754;10.110;2022-10-31T13:26:13;3.50;;;2.10;;
65289;SDS011;51893;59.754;10.110;2022-10-31T13:29:24;1.80;;;1.20;;
65289;SDS011;51893;59.754;10.110;2022-10-31T13:32:04;2.10;;;1.10;;
65289;SDS011;51893;59.754;10.110;2022-10-31T13:34:44;6.80;;;0.90;;
65289;SDS011;51893;59.754;10.110;2022-10-31T13:37:36;2.10;;;1.00;;
65289;SDS011;51893;59.754;10.110;2022-10-31T13:43:21;4.20;;;0.80;;
65289;SDS011;51893;59.754;10.110;2022-10-31T13:45:58;4.50;;;1.00;;
65289;SDS011;51893;59.754;10.110;2022-10-31T13:48:36;2.90;;;1.20;;
65289;SDS011;51893;59.754;10.110;2022-10-31T13:51:10;5.40;;;1.20;;
65289;SDS011;51893;59.754;10.110;2022-10-31T13:53:56;2.10;;;0.80;;
65289;SDS011;51893;59.754;10.110;2022-10-31T13:56:34;2.90;;;0.80;;
65289;SDS011;51893;59.754;10.110;2022-10-31T14:01:50;5.90;;;0.60;;
65289;SDS011;51893;59.754;10.110;2022-10-31T14:04:48;4.20;;;1.00;;
65289;SDS011;51893;59.754;10.110;2022-10-31T14:07:28;5.40;;;0.90;;
65289;SDS011;51893;59.754;10.110;2022-10-31T14:10:36;1.70;;;0.90;;
65289;SDS011;51893;59.754;10.110;2022-10-31T14:13:21;4.50;;;1.00;;
65289;SDS011;51893;59.754;10.110;2022-10-31T14:15:58;6.20;;;1.20;;
65289;SDS011;51893;59.754;10.110;2022-10-31T14:18:34;4.70;;;1.00;;
65289;SDS011;51893;59.754;10.110;2022-10-31T14:23:52;5.60;;;2.80;;
65289;SDS011;51893;59.754;10.110;2022-10-31T14:28:51;5.50;;;3.30;;
65289;SDS011;51893;59.754;10.110;2022-10-31T14:31:36;1.40;;;1.20;;
65289;SDS011;51893;59.754;10.110;2022-10-31T14:46:15;3.50;;;1.10;;
65289;SDS011;51893;59.754;10.110;2022-10-31T14:51:46;6.30;;;2.30;;
65289;SDS011;51893;59.754;10.110;2022-10-31T14:57:13;21.70;;;8.90;;
65289;SDS011;51893;59.754;10.110;2022-10-31T15:00:07;7.20;;;3.00;;
65289;SDS011;51893;59.754;10.110;2022-10-31T15:03:12;4.30;;;2.30;;
65289;SDS011;51893;59.754;10.110;2022-10-31T15:06:24;2.90;;;1.20;;
65289;SDS011;51893;59.754;10.110;2022-10-31T15:08:54;4.10;;;1.50;;
65289;SDS011;51893;59.754;10.110;2022-10-31T15:11:26;6.20;;;1.90;;
65289;SDS011;51893;59.754;10.110;2022-10-31T15:13:58;5.90;;;2.90;;
65289;SDS011;51893;59.754;10.110;2022-10-31T15:19:07;10.10;;;5.00;;
65289;SDS011;51893;59.754;10.110;2022-10-31T15:21:43;9.10;;;4.00;;
65289;SDS011;51893;59.754;10.110;2022-10-31T15:24:15;12.90;;;4.40;;
65289;SDS011;51893;59.754;10.110;2022-10-31T15:26:48;8.80;;;4.30;;
65289;SDS011;51893;59.754;10.110;2022-10-31T15:29:20;9.30;;;3.00;;
65289;SDS011;51893;59.754;10.110;2022-10-31T15:31:56;12.10;;;6.30;;
65289;SDS011;51893;59.754;10.110;2022-10-31T15:37:04;35.30;;;13.90;;
65289;SDS011;51893;59.754;10.110;2022-10-31T15:39:35;30.40;;;15.60;;
65289;SDS011;51893;59.754;10.110;2022-10-31T15:42:03;19.00;;;9.70;;
65289;SDS011;51893;59.754;10.110;2022-10-31T15:44:36;17.10;;;6.10;;
65289;SDS011;51893;59.754;10.110;2022-10-31T15:47:16;12.50;;;4.20;;
65289;SDS011;51893;59.754;10.110;2022-10-31T15:49:57;11.10;;;4.10;;
65289;SDS011;51893;59.754;10.110;2022-10-31T15:52:46;12.80;;;3.90;;
65289;SDS011;51893;59.754;10.110;2022-10-31T15:55:20;12.70;;;8.60;;
65289;SDS011;51893;59.754;10.110;2022-10-31T15:57:53;14.10;;;7.30;;
65289;SDS011;51893;59.754;10.110;2022-10-31T16:00:32;12.50;;;5.00;;
65289;SDS011;51893;59.754;10.110;2022-10-31T16:08:33;5.40;;;3.20;;
65289;SDS011;51893;59.754;10.110;2022-10-31T16:16:49;8.10;;;2.70;;
65289;SDS011;51893;59.754;10.110;2022-10-31T16:19:32;18.10;;;7.10;;
65289;SDS011;51893;59.754;10.110;2022-10-31T16:22:06;24.90;;;10.80;;
65289;SDS011;51893;59.754;10.110;2022-10-31T16:24:46;21.30;;;8.60;;
65289;SDS011;51893;59.754;10.110;2022-10-31T16:27:20;19.70;;;8.20;;
65289;SDS011;51893;59.754;10.110;2022-10-31T16:29:59;18.10;;;7.00;;
65289;SDS011;51893;59.754;10.110;2022-10-31T16:32:52;18.40;;;7.50;;
65289;SDS011;51893;59.754;10.110;2022-10-31T16:35:37;7.80;;;3.70;;
65289;SDS011;51893;59.754;10.110;2022-10-31T16:38:06;29.60;;;10.30;;
65289;SDS011;51893;59.754;10.110;2022-10-31T16:40:38;18.00;;;8.10;;
65289;SDS011;51893;59.754;10.110;2022-10-31T16:43:15;17.70;;;6.20;;
65289;SDS011;51893;59.754;10.110;2022-10-31T16:45:50;23.00;;;9.40;;
65289;SDS011;51893;59.754;10.110;2022-10-31T16:48:21;30.40;;;12.30;;
65289;SDS011;51893;59.754;10.110;2022-10-31T16:50:52;31.80;;;11.70;;
65289;SDS011;51893;59.754;10.110;2022-10-31T16:53:20;25.30;;;10.30;;
65289;SDS011;51893;59.754;10.110;2022-10-31T16:55:54;25.80;;;11.00;;
65289;SDS011;51893;59.754;10.110;2022-10-31T16:58:27;27.70;;;11.80;;
65289;SDS011;51893;59.754;10.110;2022-10-31T17:00:57;27.90;;;12.10;;
65289;SDS011;51893;59.754;10.110;2022-10-31T17:03:27;32.60;;;12.00;;
65289;SDS011;51893;59.754;10.110;2022-10-31T17:05:55;25.40;;;10.80;;
65289;SDS011;51893;59.754;10.110;2022-10-31T17:08:24;33.70;;;13.90;;
65289;SDS011;51893;59.754;10.110;2022-10-31T17:10:57;23.40;;;11.40;;
65289;SDS011;51893;59.754;10.110;2022-10-31T17:13:29;23.50;;;9.20;;
65289;SDS011;51893;59.754;10.110;2022-10-31T17:16:03;24.70;;;10.70;;
65289;SDS011;51893;59.754;10.110;2022-10-31T17:18:32;21.00;;;10.90;;
65289;SDS011;51893;59.754;10.110;2022-10-31T17:21:03;21.50;;;11.80;;
65289;SDS011;51893;59.754;10.110;2022-10-31T17:23:33;18.00;;;10.00;;
65289;SDS011;51893;59.754;10.110;2022-10-31T17:26:04;26.70;;;13.40;;
65289;SDS011;51893;59.754;10.110;2022-10-31T17:28:35;28.10;;;13.10;;
65289;SDS011;51893;59.754;10.110;2022-10-31T17:31:03;22.20;;;12.70;;